Terminal Aerodrome Forecast
Issued by NWS

Home | Current Version | Previous Version | Text Only | Print | Product List | Glossary On
Versions: 1 2 3 4 5 6 7 8 9 10 11 12 13
000
FTUS44 KTSA 291700
TAFFYV
TAF
KFYV 291737Z 2918/3018 22010KT P6SM BKN180
     FM292200 27007KT P6SM BKN150
     FM300100 33004KT P6SM SCT100
     FM300600 12003KT P6SM SKC=

USA.gov is the U.S. government's official web portal to all federal, state and local government web resources and services.